Time;durP1;ratioP1;P1;durP2;ratioP2;P2;SDS_P1;SDS_P2;PMS_P1;PMS_P2;Temp;Humidity;BMP_temperature;BMP_pressure;BME280_temperature;BME280_humidity;BME280_pressure;Samples;Min_cycle;Max_cycle;Signal;HPM_P1;HPM_P2
2021/07/10 00:02:25;;;;;;;15.90;14.60;;;16.60;99.90;;;;;;5033894;28;20618;-74
2021/07/10 00:04:50;;;;;;;15.80;14.40;;;16.60;99.90;;;;;;5033987;28;20160;-74
2021/07/10 00:07:16;;;;;;;15.43;14.10;;;16.60;99.90;;;;;;5025913;28;20185;-74
2021/07/10 00:09:41;;;;;;;15.43;14.00;;;16.60;99.90;;;;;;5029364;28;20191;-74
2021/07/10 00:12:07;;;;;;;15.27;13.97;;;16.60;99.90;;;;;;5033847;28;20192;-74
2021/07/10 00:14:33;;;;;;;14.10;12.83;;;16.60;99.90;;;;;;5032744;28;20542;-74
2021/07/10 00:16:58;;;;;;;15.17;13.77;;;16.60;99.90;;;;;;5024042;28;20192;-74
2021/07/10 00:19:24;;;;;;;16.07;14.50;;;16.60;99.90;;;;;;5033933;28;20168;-74
2021/07/10 00:21:50;;;;;;;14.80;13.33;;;16.50;99.90;;;;;;5034122;28;20165;-74
2021/07/10 00:24:16;;;;;;;15.00;13.70;;;16.50;99.90;;;;;;5033501;28;20211;-74
2021/07/10 00:26:42;;;;;;;14.43;13.23;;;16.50;99.90;;;;;;5033765;28;20415;-74
2021/07/10 00:29:07;;;;;;;15.27;13.90;;;16.40;99.90;;;;;;5033619;28;20388;-74
2021/07/10 00:31:33;;;;;;;15.57;14.10;;;16.40;99.90;;;;;;5033191;28;20560;-74
2021/07/10 00:33:58;;;;;;;18.73;16.83;;;16.40;99.90;;;;;;5033618;28;20204;-74
2021/07/10 00:36:24;;;;;;;17.87;16.00;;;16.40;99.90;;;;;;5032626;28;20153;-74
2021/07/10 00:38:50;;;;;;;20.50;16.40;;;16.30;99.90;;;;;;5013899;28;20256;-74
2021/07/10 00:41:17;;;;;;;17.00;15.40;;;16.30;99.90;;;;;;5013659;28;20149;-74
2021/07/10 00:43:48;;;;;;;17.07;15.37;;;16.30;99.90;;;;;;5013581;28;20389;-74
2021/07/10 00:46:18;;;;;;;19.63;15.77;;;16.20;99.90;;;;;;5013838;28;20419;-74
2021/07/10 00:48:45;;;;;;;17.53;15.23;;;16.20;99.90;;;;;;5013487;28;20467;-74
2021/07/10 00:51:11;;;;;;;16.00;14.60;;;16.10;99.90;;;;;;5024519;28;20979;-74
2021/07/10 00:53:37;;;;;;;17.07;15.43;;;16.10;99.90;;;;;;5033014;28;20399;-74
2021/07/10 00:56:03;;;;;;;16.97;15.30;;;16.10;99.90;;;;;;5033108;28;20239;-74
2021/07/10 00:58:29;;;;;;;16.00;14.60;;;16.10;99.90;;;;;;5032990;28;20607;-74
2021/07/10 01:00:55;;;;;;;16.50;14.93;;;16.00;99.90;;;;;;5033018;28;20402;-74
2021/07/10 01:03:21;;;;;;;15.13;13.73;;;16.00;99.90;;;;;;5023890;28;20209;-74
2021/07/10 01:05:47;;;;;;;16.07;14.53;;;16.00;99.90;;;;;;5023726;28;20469;-74
2021/07/10 01:08:12;;;;;;;16.53;15.03;;;16.00;99.90;;;;;;5032305;28;20447;-74
2021/07/10 01:10:38;;;;;;;16.63;15.10;;;16.00;99.90;;;;;;5032821;28;20235;-74
2021/07/10 01:13:04;;;;;;;15.23;13.93;;;15.90;99.90;;;;;;5032680;28;20168;-74
2021/07/10 01:15:30;;;;;;;16.47;14.77;;;15.90;99.90;;;;;;5032830;28;20507;-74
2021/07/10 01:17:57;;;;;;;17.40;14.87;;;15.90;99.90;;;;;;5032977;28;20641;-74
2021/07/10 01:20:24;;;;;;;17.60;14.97;;;15.80;99.90;;;;;;5032929;28;20211;-74
2021/07/10 01:22:51;;;;;;;17.33;15.63;;;15.80;99.90;;;;;;5032656;28;20442;-74
2021/07/10 01:25:19;;;;;;;14.50;13.10;;;15.80;99.90;;;;;;5032359;28;20416;-74
2021/07/10 01:27:45;;;;;;;15.80;14.40;;;15.70;99.90;;;;;;5032207;28;20395;-74
2021/07/10 01:30:13;;;;;;;17.73;15.30;;;15.70;99.90;;;;;;5032492;28;20745;-74
2021/07/10 01:32:40;;;;;;;16.77;14.90;;;15.70;99.90;;;;;;5024694;28;20574;-74
2021/07/10 01:35:08;;;;;;;19.83;15.27;;;15.70;99.90;;;;;;5012641;28;20405;-74
2021/07/10 01:37:34;;;;;;;17.00;15.50;;;15.60;99.90;;;;;;5012705;28;20393;-74
2021/07/10 01:39:59;;;;;;;16.57;15.07;;;15.60;99.90;;;;;;5012734;28;20385;-74
2021/07/10 01:42:25;;;;;;;16.57;15.07;;;15.60;99.90;;;;;;5025602;28;20434;-74
2021/07/10 01:44:51;;;;;;;17.63;16.03;;;15.50;99.90;;;;;;5033169;28;20226;-74
2021/07/10 01:47:17;;;;;;;17.23;15.60;;;15.50;99.90;;;;;;5032741;28;20153;-74
2021/07/10 01:49:43;;;;;;;17.07;15.57;;;15.50;99.90;;;;;;5032457;28;20430;-74
2021/07/10 01:52:08;;;;;;;17.37;15.77;;;15.50;99.90;;;;;;5032318;28;20455;-74
2021/07/10 01:54:34;;;;;;;17.87;16.27;;;15.40;99.90;;;;;;5032321;28;20153;-74
2021/07/10 01:56:59;;;;;;;16.57;14.90;;;15.40;99.90;;;;;;5032638;28;20267;-74
2021/07/10 01:59:25;;;;;;;16.10;14.60;;;15.40;99.90;;;;;;5032469;28;20208;-74
2021/07/10 02:01:52;;;;;;;15.90;14.30;;;15.40;99.90;;;;;;5027889;28;20196;-74
2021/07/10 02:04:20;;;;;;;17.27;15.67;;;15.30;99.90;;;;;;5012425;28;20174;-75
2021/07/10 02:06:46;;;;;;;15.87;14.47;;;15.30;99.90;;;;;;5012861;28;20760;-74
2021/07/10 02:09:12;;;;;;;16.03;14.50;;;15.30;99.90;;;;;;5023553;28;20416;-74
2021/07/10 02:11:42;;;;;;;18.03;16.33;;;15.30;99.90;;;;;;5032226;28;20431;-74
2021/07/10 02:14:08;;;;;;;16.90;15.40;;;15.20;99.90;;;;;;5032412;28;20431;-74
2021/07/10 02:16:33;;;;;;;17.03;15.47;;;15.20;99.90;;;;;;5031852;28;20439;-74
2021/07/10 02:18:59;;;;;;;17.53;15.80;;;15.20;99.90;;;;;;5032493;28;20169;-74
2021/07/10 02:21:25;;;;;;;17.60;15.90;;;15.10;99.90;;;;;;5032167;28;20531;-74
2021/07/10 02:23:51;;;;;;;18.07;16.37;;;15.10;99.90;;;;;;5029394;28;20276;-74
2021/07/10 02:26:18;;;;;;;17.57;15.87;;;15.10;99.90;;;;;;5012985;28;20157;-74
2021/07/10 02:28:44;;;;;;;18.67;16.83;;;15.10;99.90;;;;;;5012709;28;20412;-74
2021/07/10 02:31:10;;;;;;;18.70;16.90;;;15.10;99.90;;;;;;5012662;28;20456;-74
2021/07/10 02:33:35;;;;;;;18.53;16.60;;;15.10;99.90;;;;;;5026544;28;20538;-74
2021/07/10 02:36:01;;;;;;;18.17;16.40;;;15.10;99.90;;;;;;5031984;28;20404;-74
2021/07/10 02:38:27;;;;;;;18.80;17.00;;;15.10;99.90;;;;;;5033882;28;20169;-74
2021/07/10 02:40:52;;;;;;;17.80;16.20;;;15.00;99.90;;;;;;5019047;28;20512;-74
2021/07/10 02:43:18;;;;;;;18.70;17.00;;;15.00;99.90;;;;;;5016417;28;20611;-74
2021/07/10 02:45:44;;;;;;;18.33;16.53;;;15.00;99.90;;;;;;5015662;28;20854;-74
2021/07/10 02:48:12;;;;;;;19.13;17.27;;;15.00;99.90;;;;;;5015709;28;20158;-74
2021/07/10 02:50:39;;;;;;;17.97;16.27;;;15.00;99.90;;;;;;5030249;28;20213;-74
2021/07/10 02:53:05;;;;;;;18.07;16.33;;;15.00;99.90;;;;;;5035567;28;20454;-74
2021/07/10 02:55:32;;;;;;;17.10;15.60;;;15.00;99.90;;;;;;5035271;28;20420;-74
2021/07/10 02:57:57;;;;;;;20.23;18.27;;;15.00;99.90;;;;;;5035934;28;20411;-74
2021/07/10 03:00:25;;;;;;;17.90;16.13;;;14.90;99.90;;;;;;5035243;28;20395;-74
2021/07/10 03:02:51;;;;;;;17.47;15.87;;;14.90;99.90;;;;;;5035167;28;20168;-74
2021/07/10 03:05:17;;;;;;;18.13;16.27;;;14.90;99.90;;;;;;5035182;28;20395;-74
2021/07/10 03:07:44;;;;;;;18.70;16.80;;;14.90;99.90;;;;;;5035112;28;20692;-74
2021/07/10 03:10:13;;;;;;;16.70;15.07;;;14.90;99.90;;;;;;5035132;28;20415;-74
2021/07/10 03:12:39;;;;;;;18.83;17.00;;;14.80;99.90;;;;;;5035517;28;20387;-74
2021/07/10 03:15:06;;;;;;;17.40;15.83;;;14.80;99.90;;;;;;5034222;28;20421;-74
2021/07/10 03:17:31;;;;;;;17.20;15.53;;;14.80;99.90;;;;;;5034912;28;20215;-74
2021/07/10 03:19:57;;;;;;;17.33;15.77;;;14.80;99.90;;;;;;5034809;28;20383;-74
2021/07/10 03:22:22;;;;;;;16.67;15.00;;;14.70;99.90;;;;;;5034982;28;20169;-74
2021/07/10 03:24:48;;;;;;;19.70;17.20;;;14.70;99.90;;;;;;5034657;28;20177;-74
2021/07/10 03:27:13;;;;;;;19.47;15.83;;;14.70;99.90;;;;;;5035068;28;20153;-74
2021/07/10 03:29:39;;;;;;;18.23;16.43;;;14.70;99.90;;;;;;5034431;28;20160;-74
2021/07/10 03:32:05;;;;;;;18.03;16.33;;;14.60;99.90;;;;;;5034518;28;20209;-74
2021/07/10 03:34:31;;;;;;;19.50;17.03;;;14.60;99.90;;;;;;5034914;28;20197;-74
2021/07/10 03:36:56;;;;;;;17.67;16.07;;;14.60;99.90;;;;;;5034852;28;20458;-74
2021/07/10 03:39:22;;;;;;;18.30;16.50;;;14.60;99.90;;;;;;5035291;28;20210;-74
2021/07/10 03:41:48;;;;;;;19.10;17.27;;;14.60;99.90;;;;;;5034607;28;20185;-74
2021/07/10 03:44:14;;;;;;;18.43;16.83;;;14.60;99.90;;;;;;5033625;28;20546;-74
2021/07/10 03:46:39;;;;;;;20.07;17.33;;;14.60;99.90;;;;;;5034346;28;20203;-74
2021/07/10 03:49:05;;;;;;;19.80;18.00;;;14.60;99.90;;;;;;5034300;28;20411;-74
2021/07/10 03:51:30;;;;;;;20.47;17.83;;;14.60;99.90;;;;;;5034756;28;20189;-74
2021/07/10 03:53:56;;;;;;;20.00;18.20;;;14.60;99.90;;;;;;5034385;28;20211;-74
2021/07/10 03:56:22;;;;;;;19.90;18.10;;;14.60;99.90;;;;;;5034240;28;20637;-74
2021/07/10 03:58:47;;;;;;;19.70;17.90;;;14.60;99.90;;;;;;5034264;28;20196;-74
2021/07/10 04:01:13;;;;;;;20.07;18.37;;;14.60;99.90;;;;;;5034106;28;20626;-74
2021/07/10 04:03:39;;;;;;;19.60;17.80;;;14.60;99.90;;;;;;5033918;28;20490;-74
2021/07/10 04:06:04;;;;;;;20.63;18.83;;;14.60;99.90;;;;;;5034122;28;20551;-74
2021/07/10 04:08:30;;;;;;;20.03;18.03;;;14.60;99.90;;;;;;5034458;28;20161;-74
2021/07/10 04:10:55;;;;;;;18.80;16.97;;;14.70;99.90;;;;;;5033891;28;20266;-74
2021/07/10 04:13:21;;;;;;;19.20;17.40;;;14.60;99.90;;;;;;5030731;28;20232;-74
2021/07/10 04:15:46;;;;;;;20.10;18.30;;;14.70;99.90;;;;;;5029815;28;20331;-74
2021/07/10 04:18:12;;;;;;;19.70;18.00;;;14.70;99.90;;;;;;5033994;28;20164;-74
2021/07/10 04:20:37;;;;;;;18.90;17.10;;;14.70;99.90;;;;;;5033626;28;20192;-74
2021/07/10 04:23:05;;;;;;;20.43;18.33;;;14.70;99.90;;;;;;5033992;28;20610;-74
2021/07/10 04:25:31;;;;;;;21.90;18.00;;;14.70;99.90;;;;;;5033686;28;20187;-74
2021/07/10 04:27:57;;;;;;;20.70;18.83;;;14.70;99.90;;;;;;5033781;28;20396;-74
2021/07/10 04:30:22;;;;;;;18.27;16.50;;;14.80;99.90;;;;;;5033217;28;20458;-74
2021/07/10 04:32:49;;;;;;;20.03;18.27;;;14.80;99.90;;;;;;5033302;28;20196;-74
2021/07/10 04:35:16;;;;;;;21.57;19.57;;;14.80;99.90;;;;;;5033817;28;20636;-74
2021/07/10 04:37:42;;;;;;;20.80;18.43;;;14.80;99.90;;;;;;5034064;28;20427;-74
2021/07/10 04:40:08;;;;;;;19.90;17.90;;;14.90;99.90;;;;;;5033344;28;20407;-74
2021/07/10 04:42:34;;;;;;;22.23;19.83;;;14.90;99.90;;;;;;5033447;28;20161;-74
2021/07/10 04:45:00;;;;;;;19.47;17.73;;;14.90;99.90;;;;;;5032614;28;20434;-74
2021/07/10 04:47:25;;;;;;;19.30;17.50;;;15.00;99.90;;;;;;5033121;28;20400;-74
2021/07/10 04:49:51;;;;;;;21.50;17.93;;;15.00;99.90;;;;;;5033388;28;20525;-74
2021/07/10 04:52:16;;;;;;;19.07;17.17;;;15.10;99.90;;;;;;5033259;28;20189;-74
2021/07/10 04:54:42;;;;;;;20.87;18.97;;;15.10;99.90;;;;;;5033136;28;20157;-74
2021/07/10 04:57:08;;;;;;;19.10;17.37;;;15.10;99.90;;;;;;5033507;28;20164;-74
2021/07/10 04:59:33;;;;;;;20.03;18.03;;;15.10;99.90;;;;;;5033104;28;20153;-74
2021/07/10 05:01:59;;;;;;;20.37;18.33;;;15.20;99.90;;;;;;5029125;28;20182;-74
2021/07/10 05:04:24;;;;;;;20.53;18.43;;;15.20;99.90;;;;;;5013978;28;20197;-74
2021/07/10 05:06:50;;;;;;;19.40;17.60;;;15.20;99.90;;;;;;5029590;28;20191;-74
2021/07/10 05:09:16;;;;;;;21.43;19.37;;;15.20;99.90;;;;;;5032790;28;20172;-74
2021/07/10 05:11:42;;;;;;;21.70;19.53;;;15.30;99.90;;;;;;5032835;28;20640;-74
2021/07/10 05:14:08;;;;;;;20.20;18.17;;;15.30;99.90;;;;;;5033218;28;20165;-74
2021/07/10 05:16:34;;;;;;;19.33;17.30;;;15.30;99.90;;;;;;5032656;28;20430;-74
2021/07/10 05:19:00;;;;;;;21.03;19.00;;;15.40;99.90;;;;;;5033607;28;20654;-74
2021/07/10 05:21:26;;;;;;;19.53;17.50;;;15.40;99.90;;;;;;5032933;28;20387;-74
2021/07/10 05:23:51;;;;;;;20.57;18.67;;;15.40;99.90;;;;;;5032744;28;20423;-74
2021/07/10 05:26:17;;;;;;;22.23;18.00;;;15.50;99.90;;;;;;5033102;28;20527;-74
2021/07/10 05:28:43;;;;;;;20.23;17.67;;;15.50;99.90;;;;;;5033029;28;20251;-74
2021/07/10 05:31:08;;;;;;;17.77;16.17;;;15.60;99.90;;;;;;5032924;28;20209;-74
2021/07/10 05:33:34;;;;;;;17.83;16.13;;;15.60;99.90;;;;;;5017970;28;20209;-74
2021/07/10 05:35:59;;;;;;;19.00;17.17;;;15.70;99.90;;;;;;5013279;28;20187;-74
2021/07/10 05:38:26;;;;;;;18.17;16.47;;;15.70;99.90;;;;;;5013084;28;20165;-74
2021/07/10 05:40:52;;;;;;;19.83;17.00;;;15.70;99.90;;;;;;5029294;28;20188;-74
2021/07/10 05:43:19;;;;;;;19.13;17.10;;;15.70;99.90;;;;;;5018136;28;20404;-74
2021/07/10 05:45:45;;;;;;;18.80;17.03;;;15.80;99.90;;;;;;5013016;28;20459;-74
2021/07/10 05:48:11;;;;;;;20.00;18.13;;;15.90;99.90;;;;;;5013415;28;20438;-74
2021/07/10 05:50:36;;;;;;;17.50;15.77;;;16.00;99.90;;;;;;5012768;28;20185;-74
2021/07/10 05:53:02;;;;;;;19.90;18.00;;;16.10;99.90;;;;;;5012621;28;20154;-74
2021/07/10 05:55:28;;;;;;;19.23;17.53;;;16.30;99.90;;;;;;5012720;28;20252;-74
2021/07/10 05:57:53;;;;;;;17.47;15.87;;;16.50;99.90;;;;;;5030102;28;20181;-74
2021/07/10 06:00:19;;;;;;;18.07;15.53;;;16.70;99.90;;;;;;5032964;28;20208;-74
2021/07/10 06:02:44;;;;;;;16.97;15.27;;;16.90;99.90;;;;;;5023860;28;20177;-74
2021/07/10 06:05:11;;;;;;;18.77;16.80;;;17.00;99.90;;;;;;5012759;28;20170;-74
2021/07/10 06:07:38;;;;;;;18.57;15.73;;;17.10;99.90;;;;;;5012675;28;20540;-74
2021/07/10 06:10:07;;;;;;;15.93;14.43;;;17.20;99.90;;;;;;5013044;28;20878;-74
2021/07/10 06:12:33;;;;;;;17.97;16.17;;;17.30;99.90;;;;;;5020388;28;20412;-74
2021/07/10 06:14:58;;;;;;;16.57;15.03;;;17.40;99.90;;;;;;5036222;28;20782;-74
2021/07/10 06:17:26;;;;;;;14.33;13.03;;;17.40;99.90;;;;;;5036466;28;20168;-74
2021/07/10 06:19:53;;;;;;;14.13;12.83;;;17.50;99.90;;;;;;5036160;28;20169;-74
2021/07/10 06:22:19;;;;;;;18.00;15.83;;;17.60;99.90;;;;;;5035813;28;20419;-74
2021/07/10 06:24:44;;;;;;;16.60;14.90;;;17.70;99.90;;;;;;5036431;28;20782;-74
2021/07/10 06:27:10;;;;;;;14.70;13.40;;;17.70;99.90;;;;;;5035860;28;20239;-74
2021/07/10 06:29:36;;;;;;;15.43;13.90;;;17.80;99.90;;;;;;5036247;28;20534;-75
2021/07/10 06:32:01;;;;;;;15.70;14.20;;;17.90;99.90;;;;;;5034156;28;20227;-74
2021/07/10 06:34:27;;;;;;;16.37;14.77;;;18.00;99.90;;;;;;5035882;28;20869;-74
2021/07/10 06:36:52;;;;;;;14.57;13.23;;;18.10;99.90;;;;;;5036164;28;20156;-74
2021/07/10 06:39:20;;;;;;;14.57;13.20;;;18.20;99.90;;;;;;5035890;28;20188;-74
2021/07/10 06:41:46;;;;;;;14.70;13.40;;;18.30;99.90;;;;;;5035996;28;20611;-74
2021/07/10 06:44:11;;;;;;;17.67;13.77;;;18.50;99.90;;;;;;5036420;28;20407;-74
2021/07/10 06:46:37;;;;;;;13.17;11.97;;;18.60;99.90;;;;;;5035870;28;20404;-74
2021/07/10 06:49:03;;;;;;;14.63;13.10;;;18.70;99.90;;;;;;5035478;28;20181;-74
2021/07/10 06:51:28;;;;;;;15.10;13.30;;;18.80;99.90;;;;;;5035585;28;20642;-74
2021/07/10 06:53:54;;;;;;;13.57;12.20;;;19.00;99.90;;;;;;5035395;28;20168;-74
2021/07/10 06:56:19;;;;;;;13.70;12.40;;;19.10;99.90;;;;;;5035706;28;20629;-74
2021/07/10 06:58:45;;;;;;;14.17;12.87;;;19.10;99.90;;;;;;5035501;28;20633;-74
2021/07/10 07:01:11;;;;;;;15.97;12.67;;;19.20;99.90;;;;;;5035443;28;20172;-74
2021/07/10 07:03:38;;;;;;;12.97;11.80;;;19.40;99.90;;;;;;5017302;28;20228;-74
2021/07/10 07:06:04;;;;;;;13.53;12.30;;;19.50;99.90;;;;;;5034141;28;20411;-74
2021/07/10 07:08:29;;;;;;;15.17;13.57;;;19.60;99.90;;;;;;5035176;28;20881;-74
2021/07/10 07:10:55;;;;;;;12.80;11.30;;;19.70;99.90;;;;;;5035105;28;20543;-74
2021/07/10 07:13:20;;;;;;;12.67;11.33;;;19.80;99.90;;;;;;5035299;28;20707;-74
2021/07/10 07:15:46;;;;;;;13.63;12.33;;;19.90;99.90;;;;;;5035431;28;20164;-74
2021/07/10 07:18:15;;;;;;;12.90;11.80;;;20.00;99.90;;;;;;5035111;28;20157;-74
2021/07/10 07:20:42;;;;;;;12.80;11.60;;;20.10;99.90;;;;;;5034987;28;20199;-74
2021/07/10 07:23:07;;;;;;;13.10;11.80;;;20.20;99.90;;;;;;5034724;28;20502;-74
2021/07/10 07:25:34;;;;;;;12.17;11.13;;;20.40;99.90;;;;;;5035318;28;20839;-74
2021/07/10 07:28:00;;;;;;;12.47;10.67;;;20.50;99.90;;;;;;5034788;28;20160;-74
2021/07/10 07:30:25;;;;;;;12.03;10.50;;;20.70;99.90;;;;;;5034606;28;20514;-75
2021/07/10 07:32:51;;;;;;;11.50;9.97;;;20.80;99.90;;;;;;5023374;28;20205;-74
2021/07/10 07:35:18;;;;;;;10.23;9.33;;;21.10;99.90;;;;;;5014972;28;20166;-74
2021/07/10 07:37:43;;;;;;;11.03;9.93;;;21.20;99.90;;;;;;5014984;28;20185;-74
2021/07/10 07:40:10;;;;;;;8.80;8.10;;;21.40;99.90;;;;;;5034228;28;20870;-74
2021/07/10 07:42:36;;;;;;;9.40;8.47;;;21.60;99.90;;;;;;5034637;28;20248;-74
2021/07/10 07:45:04;;;;;;;10.20;9.20;;;21.80;99.90;;;;;;5034664;28;20478;-75
2021/07/10 07:47:30;;;;;;;10.87;9.97;;;21.90;99.90;;;;;;5034730;28;20647;-75
2021/07/10 07:49:55;;;;;;;8.47;7.67;;;22.20;99.90;;;;;;5034670;28;20408;-75
2021/07/10 07:52:21;;;;;;;8.80;7.87;;;22.40;99.90;;;;;;5034636;28;20192;-75
2021/07/10 07:54:46;;;;;;;8.13;7.33;;;22.80;99.90;;;;;;5034509;28;20169;-75
2021/07/10 07:57:12;;;;;;;7.60;6.80;;;23.40;99.90;;;;;;5034462;28;20219;-75
2021/07/10 07:59:38;;;;;;;8.73;7.73;;;24.10;99.90;;;;;;5034521;28;20161;-75
2021/07/10 08:02:04;;;;;;;7.07;6.47;;;24.70;99.90;;;;;;5027008;28;20174;-75
2021/07/10 08:04:30;;;;;;;8.37;6.00;;;25.20;99.90;;;;;;5014577;28;20149;-75
2021/07/10 08:06:56;;;;;;;9.67;6.87;;;25.70;99.90;;;;;;5015090;28;20397;-75
2021/07/10 08:09:21;;;;;;;7.03;6.30;;;26.00;99.90;;;;;;5014658;28;20626;-75
2021/07/10 08:11:47;;;;;;;7.50;6.80;;;26.20;99.90;;;;;;5015947;28;20291;-75
2021/07/10 08:14:13;;;;;;;6.63;5.90;;;26.30;99.90;;;;;;5033873;28;20187;-75
2021/07/10 08:16:39;;;;;;;5.83;5.23;;;26.20;99.00;;;;;;5034725;28;20486;-75
2021/07/10 08:19:05;;;;;;;6.63;6.03;;;26.20;99.50;;;;;;5034035;28;20528;-75
2021/07/10 08:21:33;;;;;;;7.20;6.50;;;26.10;99.60;;;;;;5034208;28;20477;-75
2021/07/10 08:23:59;;;;;;;13.43;6.67;;;26.00;99.40;;;;;;5033985;28;20158;-75
2021/07/10 08:26:26;;;;;;;6.40;5.80;;;26.10;99.90;;;;;;5034225;28;20771;-75
2021/07/10 08:28:51;;;;;;;8.57;6.47;;;26.20;99.90;;;;;;5033630;28;20154;-75
2021/07/10 08:31:17;;;;;;;7.00;6.30;;;26.40;99.00;;;;;;5032406;28;20866;-75
2021/07/10 08:33:43;;;;;;;7.30;6.17;;;26.60;99.60;;;;;;5013889;28;20705;-75
2021/07/10 08:36:09;;;;;;;7.53;6.73;;;26.80;99.80;;;;;;5013788;28;20587;-75
2021/07/10 08:38:36;;;;;;;7.97;6.10;;;27.00;99.50;;;;;;5013716;28;20607;-75
2021/07/10 08:41:03;;;;;;;6.47;4.90;;;27.30;96.80;;;;;;5014018;28;20622;-75
2021/07/10 08:43:29;;;;;;;7.97;5.33;;;27.60;95.60;;;;;;5014271;28;20385;-75
2021/07/10 08:45:55;;;;;;;6.07;5.47;;;28.00;94.60;;;;;;5028256;28;20411;-75
2021/07/10 08:48:21;;;;;;;5.80;4.97;;;28.40;93.80;;;;;;5013900;28;20204;-75
2021/07/10 08:50:47;;;;;;;9.43;4.60;;;28.80;93.20;;;;;;5014112;28;20460;-75
2021/07/10 08:53:13;;;;;;;7.90;5.80;;;28.90;92.80;;;;;;5013678;28;20172;-75
2021/07/10 08:55:39;;;;;;;7.23;6.63;;;29.00;91.30;;;;;;5013506;28;20160;-75
2021/07/10 08:58:05;;;;;;;9.40;6.67;;;28.90;91.70;;;;;;5013523;28;20454;-75
2021/07/10 09:00:35;;;;;;;5.27;4.87;;;28.80;92.40;;;;;;5013579;28;20412;-75
2021/07/10 09:03:01;;;;;;;5.47;4.47;;;28.70;93.20;;;;;;5030251;28;20506;-75
2021/07/10 09:05:27;;;;;;;8.70;7.80;;;28.50;90.30;;;;;;5033556;28;20830;-75
2021/07/10 09:11:09;;;;;;;5.33;4.83;;;28.20;90.90;;;;;;5172325;27;21060;-71
2021/07/10 09:16:17;;;;;;;5.63;5.00;;;28.00;91.50;;;;;;5151840;27;20519;-71
2021/07/10 09:18:46;;;;;;;6.03;5.40;;;27.80;91.40;;;;;;5152246;27;20402;-71
2021/07/10 09:21:32;;;;;;;6.90;5.10;;;27.90;93.40;;;;;;5139709;27;20695;-71
2021/07/10 09:23:57;;;;;;;5.40;4.90;;;27.90;92.00;;;;;;5130950;27;20387;-71
2021/07/10 09:26:26;;;;;;;8.97;5.90;;;28.10;92.40;;;;;;5130863;28;20379;-71
2021/07/10 09:31:38;;;;;;;7.27;6.53;;;28.10;91.00;;;;;;5027343;27;20529;-74
2021/07/10 09:34:08;;;;;;;5.93;5.27;;;28.10;92.00;;;;;;5026744;28;20459;-74
2021/07/10 09:36:34;;;;;;;6.00;4.80;;;28.00;90.50;;;;;;5026989;28;20392;-75
2021/07/10 09:39:00;;;;;;;5.93;5.33;;;27.90;91.50;;;;;;5026057;28;20408;-75
2021/07/10 09:41:31;;;;;;;6.67;6.00;;;27.90;92.50;;;;;;5026819;28;20946;-75
2021/07/10 09:44:07;;;;;;;13.43;5.87;;;27.90;94.00;;;;;;5026494;28;20641;-75
2021/07/10 09:46:33;;;;;;;5.47;4.70;;;27.80;92.80;;;;;;5007097;28;20479;-75
2021/07/10 09:49:18;;;;;;;5.60;5.10;;;27.70;93.90;;;;;;5006717;28;20756;-75
2021/07/10 09:51:45;;;;;;;7.30;6.53;;;27.50;92.40;;;;;;5007002;28;20433;-75
2021/07/10 09:54:11;;;;;;;5.17;4.40;;;27.30;92.50;;;;;;5007620;28;20412;-74
2021/07/10 09:56:58;;;;;;;5.40;4.90;;;27.20;95.50;;;;;;5006793;28;20401;-75
2021/07/10 09:59:24;;;;;;;7.20;4.90;;;27.00;92.00;;;;;;5006915;28;20391;-75
2021/07/10 10:01:51;;;;;;;4.70;4.27;;;26.80;90.80;;;;;;5006654;28;20396;-74
2021/07/10 10:04:29;;;;;;;4.80;4.40;;;26.50;92.10;;;;;;5023185;28;20407;-75
2021/07/10 10:06:56;;;;;;;6.00;5.07;;;26.50;96.00;;;;;;5026500;28;20794;-75
2021/07/10 10:09:24;;;;;;;5.37;4.97;;;26.40;93.70;;;;;;5026006;28;20869;-75
2021/07/10 10:14:32;;;;;;;5.60;5.17;;;26.30;94.60;;;;;;5070197;28;20508;-72
2021/07/10 10:16:59;;;;;;;6.77;6.07;;;26.30;95.30;;;;;;5070060;28;20536;-71
2021/07/10 10:19:29;;;;;;;5.87;5.33;;;26.30;95.70;;;;;;5069875;28;20374;-71
2021/07/10 10:21:57;;;;;;;5.70;5.23;;;26.20;94.50;;;;;;5069758;28;20413;-71
2021/07/10 10:24:24;;;;;;;5.67;5.03;;;26.10;94.30;;;;;;5069700;28;20417;-71
2021/07/10 10:26:51;;;;;;;8.90;6.30;;;26.00;93.90;;;;;;5069753;28;20414;-71
2021/07/10 10:29:19;;;;;;;8.50;7.70;;;25.90;95.50;;;;;;5058134;28;20460;-71
2021/07/10 10:31:47;;;;;;;6.43;5.63;;;25.70;94.70;;;;;;5049693;28;20419;-71
2021/07/10 10:34:13;;;;;;;6.50;5.90;;;25.70;97.30;;;;;;5049540;28;20495;-71
2021/07/10 10:36:41;;;;;;;7.00;5.77;;;25.60;97.80;;;;;;5051156;28;20440;-72
2021/07/10 10:39:10;;;;;;;6.77;5.37;;;25.50;98.10;;;;;;5069488;28;20397;-72
2021/07/10 10:41:40;;;;;;;6.33;5.73;;;25.50;96.60;;;;;;5071006;28;20455;-71
2021/07/10 10:44:06;;;;;;;7.87;7.17;;;25.30;96.60;;;;;;5069766;28;20390;-71
2021/07/10 10:46:57;;;;;;;6.23;5.67;;;25.20;96.30;;;;;;5055496;28;20419;-71
2021/07/10 10:52:32;;;;;;;6.87;6.27;;;25.20;95.80;;;;;;5069900;28;20579;-71
2021/07/10 11:02:58;;;;;;;6.00;5.50;;;25.10;97.30;;;;;;5101703;27;20578;-71
2021/07/10 11:05:43;;;;;;;6.83;5.17;;;25.10;98.80;;;;;;5090391;28;20476;-71
2021/07/10 11:13:57;;;;;;;5.87;5.27;;;25.00;99.30;;;;;;5070282;28;20638;-71
2021/07/10 11:16:23;;;;;;;5.70;4.47;;;25.10;96.40;;;;;;5069848;28;20416;-71
2021/07/10 11:19:06;;;;;;;5.57;5.07;;;25.20;96.60;;;;;;5069747;28;20394;-71
2021/07/10 11:29:35;;;;;;;5.70;5.20;;;25.40;98.30;;;;;;5110505;27;20966;-71
2021/07/10 11:32:19;;;;;;;4.40;4.03;;;25.80;96.00;;;;;;5110517;28;20817;-71
2021/07/10 11:40:06;;;;;;;7.10;6.50;;;25.50;93.40;;;;;;5070011;28;20512;-71
2021/07/10 11:42:41;;;;;;;9.40;6.97;;;25.40;93.50;;;;;;5070118;28;20739;-71
2021/07/10 11:47:53;;;;;;;4.97;4.57;;;25.10;92.40;;;;;;5069981;28;20637;-71
2021/07/10 11:50:22;;;;;;;5.37;4.87;;;24.90;92.80;;;;;;5069936;28;20754;-71
2021/07/10 11:52:58;;;;;;;3.97;3.57;;;24.90;97.80;;;;;;5069773;28;20888;-70
2021/07/10 11:55:24;;;;;;;5.07;3.60;;;24.80;92.80;;;;;;5059586;28;20401;-71
2021/07/10 11:57:50;;;;;;;4.40;4.03;;;24.90;92.70;;;;;;5069818;28;20897;-71
2021/07/10 12:00:16;;;;;;;5.17;3.53;;;24.90;92.50;;;;;;5051967;28;20419;-71
2021/07/10 12:02:42;;;;;;;4.27;3.90;;;25.00;93.40;;;;;;5049703;28;20387;-70
2021/07/10 12:10:34;;;;;;;4.10;3.77;;;25.30;96.70;;;;;;5065387;28;20536;-71
2021/07/10 12:13:06;;;;;;;4.30;3.90;;;25.40;95.10;;;;;;5050042;28;20415;-71
2021/07/10 12:15:35;;;;;;;4.70;4.30;;;25.40;94.30;;;;;;5049995;28;20424;-71
2021/07/10 12:18:03;;;;;;;3.57;3.27;;;25.30;98.60;;;;;;5050025;28;20407;-72
2021/07/10 12:20:32;;;;;;;3.87;3.57;;;25.30;99.70;;;;;;5049850;28;20387;-71
2021/07/10 12:23:02;;;;;;;4.10;3.80;;;25.40;96.90;;;;;;5050058;28;20726;-71
2021/07/10 12:25:33;;;;;;;3.63;3.30;;;25.40;94.50;;;;;;5049715;28;20414;-71
2021/07/10 12:28:03;;;;;;;5.77;5.10;;;25.50;99.30;;;;;;5049313;28;20910;-71
2021/07/10 12:33:36;;;;;;;4.97;4.57;;;25.60;96.90;;;;;;5070087;28;20641;-71
2021/07/10 12:39:12;;;;;;;3.90;3.60;;;25.70;98.70;;;;;;5070250;28;20936;-71
2021/07/10 12:55:22;;;;;;;3.80;3.43;;;25.80;94.80;;;;;;5069747;28;20984;-71
2021/07/10 13:03:08;;;;;;;4.37;3.97;;;25.90;99.10;;;;;;5064551;28;21008;-71
2021/07/10 13:05:36;;;;;;;4.00;3.70;;;25.70;98.60;;;;;;5069940;28;20799;-71
2021/07/10 13:08:19;;;;;;;3.80;3.43;;;25.60;98.10;;;;;;5070184;28;20476;-71
2021/07/10 13:10:51;;;;;;;3.40;3.10;;;25.60;98.50;;;;;;5069854;28;20394;-71
2021/07/10 13:13:20;;;;;;;4.03;3.73;;;25.60;98.40;;;;;;5069862;28;20386;-71
2021/07/10 13:15:52;;;;;;;6.20;3.87;;;25.50;94.10;;;;;;5070079;28;20459;-71
2021/07/10 13:20:58;;;;;;;3.20;3.00;;;25.40;95.70;;;;;;5070185;28;20527;-71
2021/07/10 13:23:29;;;;;;;3.27;3.00;;;25.40;93.90;;;;;;5070201;28;20386;-71
2021/07/10 13:25:55;;;;;;;3.70;3.40;;;25.50;95.20;;;;;;5069768;28;20730;-71
2021/07/10 13:28:26;;;;;;;3.33;3.13;;;25.50;91.80;;;;;;5069656;28;20466;-71
2021/07/10 13:30:54;;;;;;;4.20;3.90;;;25.50;93.40;;;;;;5069616;28;20187;-71
2021/07/10 13:33:36;;;;;;;4.47;3.67;;;25.50;97.10;;;;;;5069408;28;20767;-71
2021/07/10 13:38:48;;;;;;;3.50;3.30;;;25.50;93.50;;;;;;5070048;28;20516;-72
2021/07/10 13:44:06;;;;;;;5.03;4.57;;;25.50;96.40;;;;;;5069867;28;20924;-71
2021/07/10 13:46:34;;;;;;;4.60;4.20;;;25.50;95.00;;;;;;5069933;28;20388;-71
2021/07/10 13:49:21;;;;;;;4.27;3.90;;;25.40;94.00;;;;;;5070036;28;20386;-71
2021/07/10 13:51:53;;;;;;;4.30;3.90;;;25.20;97.60;;;;;;5069312;28;20482;-71
2021/07/10 13:59:53;;;;;;;4.73;4.33;;;24.90;94.40;;;;;;5069970;28;20524;-70
2021/07/10 14:02:19;;;;;;;5.10;4.60;;;24.50;95.50;;;;;;5069136;28;20406;-70
2021/07/10 14:04:44;;;;;;;4.57;4.17;;;24.40;99.30;;;;;;5070025;28;20485;-70